Time;durP1;ratioP1;P1;durP2;ratioP2;P2;SDS_P1;SDS_P2;PMS_P1;PMS_P2;Temp;Humidity;BMP_temperature;BMP_pressure;BME280_temperature;BME280_humidity;BME280_pressure;Samples;Min_cycle;Max_cycle;Signal;HPM_P1;HPM_P2
2023/06/08 15:14:55;;;;;;;5.38;3.63;;;31.70;49.80;;;;;;5128685;27;20326;-59
2023/06/08 15:17:20;;;;;;;6.60;3.28;;;31.40;50.10;;;;;;5129795;28;20076;-60
2023/06/08 15:19:46;;;;;;;5.38;3.40;;;31.40;50.40;;;;;;5111129;28;20062;-61
2023/06/08 15:22:11;;;;;;;6.70;3.47;;;31.70;49.90;;;;;;5129447;28;20467;-61
2023/06/08 15:24:37;;;;;;;5.10;3.55;;;32.00;48.90;;;;;;5130457;28;20027;-62
2023/06/08 15:27:03;;;;;;;5.85;3.25;;;32.20;48.00;;;;;;5111089;28;20031;-62
2023/06/08 15:29:30;;;;;;;5.80;3.13;;;32.40;47.60;;;;;;5129346;28;20028;-62
2023/06/08 15:31:55;;;;;;;7.68;3.30;;;32.50;46.30;;;;;;5129566;28;20345;-61
2023/06/08 15:34:21;;;;;;;5.03;3.08;;;32.60;46.30;;;;;;5129806;28;20053;-62
2023/06/08 15:36:47;;;;;;;5.95;3.45;;;32.80;45.70;;;;;;5129363;28;20394;-62
2023/06/08 15:39:12;;;;;;;4.70;3.13;;;32.90;45.20;;;;;;5130010;28;20047;-62
2023/06/08 15:41:38;;;;;;;5.55;3.00;;;32.90;45.50;;;;;;5130006;28;20031;-62
2023/06/08 15:44:04;;;;;;;6.85;3.38;;;33.20;45.60;;;;;;5128869;28;20070;-60
2023/06/08 15:46:30;;;;;;;4.40;2.97;;;33.60;45.70;;;;;;5111229;28;20015;-60
2023/06/08 15:48:56;;;;;;;7.32;4.00;;;33.80;44.50;;;;;;5129163;28;20031;-60
2023/06/08 15:51:31;;;;;;;5.55;2.90;;;33.90;44.30;;;;;;5128839;28;20019;-61
2023/06/08 15:53:58;;;;;;;6.82;3.40;;;34.00;43.80;;;;;;5129002;28;20040;-62
2023/06/08 15:56:25;;;;;;;6.07;3.13;;;34.30;43.20;;;;;;5129348;28;20026;-61
2023/06/08 15:58:53;;;;;;;4.18;2.72;;;34.60;43.50;;;;;;5109649;28;20177;-60
2023/06/08 16:01:18;;;;;;;5.05;3.83;;;34.80;42.80;;;;;;5129219;28;20487;-60
2023/06/08 16:03:46;;;;;;;7.43;3.13;;;35.00;43.30;;;;;;5128894;28;20035;-60
2023/06/08 16:06:12;;;;;;;6.30;3.30;;;35.00;42.70;;;;;;5129099;28;20051;-61
2023/06/08 16:08:38;;;;;;;6.45;3.15;;;35.00;42.40;;;;;;5129336;28;20112;-61
2023/06/08 16:11:03;;;;;;;6.25;3.28;;;35.10;42.40;;;;;;5128068;28;20027;-62
2023/06/08 16:13:29;;;;;;;6.50;3.40;;;35.30;41.10;;;;;;5128883;28;20059;-60
2023/06/08 16:15:55;;;;;;;6.45;4.07;;;35.20;41.30;;;;;;5128746;28;20195;-61
2023/06/08 16:18:21;;;;;;;4.90;3.35;;;35.30;42.10;;;;;;5128645;28;20023;-61
2023/06/08 16:20:47;;;;;;;6.78;3.47;;;35.50;41.30;;;;;;5129003;28;20024;-61
2023/06/08 16:23:13;;;;;;;12.43;4.25;;;35.80;42.00;;;;;;5128880;28;20023;-61
2023/06/08 16:25:38;;;;;;;6.13;3.35;;;35.80;41.10;;;;;;5099346;28;20069;-62
2023/06/08 16:28:05;;;;;;;6.00;3.33;;;35.80;41.00;;;;;;5114782;28;20238;-60
2023/06/08 16:30:31;;;;;;;4.72;3.33;;;35.80;40.60;;;;;;5096806;28;20426;-61
2023/06/08 16:32:56;;;;;;;6.82;4.00;;;35.80;40.50;;;;;;5095776;28;20471;-61
2023/06/08 16:35:23;;;;;;;7.25;3.88;;;35.80;40.10;;;;;;5115045;28;20023;-61
2023/06/08 16:37:48;;;;;;;6.88;3.70;;;35.80;40.40;;;;;;5114811;28;20027;-61
2023/06/08 16:40:14;;;;;;;6.90;3.63;;;35.80;40.50;;;;;;5096151;28;20023;-61
2023/06/08 16:42:39;;;;;;;4.75;3.25;;;35.90;40.30;;;;;;5115537;28;20357;-61
2023/06/08 16:45:06;;;;;;;7.50;3.58;;;36.00;40.20;;;;;;5096476;28;20084;-62
2023/06/08 16:47:33;;;;;;;8.15;3.50;;;35.90;39.50;;;;;;5114597;28;20023;-62
2023/06/08 16:49:59;;;;;;;6.07;3.15;;;35.50;39.50;;;;;;5096658;28;20024;-62
2023/06/08 16:52:25;;;;;;;7.20;3.45;;;35.40;40.40;;;;;;5115111;28;20494;-60
2023/06/08 16:54:51;;;;;;;5.82;3.40;;;35.30;39.80;;;;;;5114119;28;20071;-60
2023/06/08 16:57:17;;;;;;;9.68;3.53;;;35.30;40.00;;;;;;5114761;28;20066;-60
2023/06/08 16:59:43;;;;;;;6.93;3.40;;;35.40;40.70;;;;;;5114606;28;20020;-61
2023/06/08 17:02:08;;;;;;;4.72;2.90;;;35.50;39.80;;;;;;5113890;28;20494;-60
2023/06/08 17:04:34;;;;;;;8.05;3.15;;;35.50;39.70;;;;;;5114557;28;20043;-60
2023/06/08 17:07:00;;;;;;;7.40;3.25;;;35.60;40.50;;;;;;5114778;28;20380;-62
2023/06/08 17:09:25;;;;;;;6.22;3.25;;;35.60;39.40;;;;;;5113916;28;20464;-61
2023/06/08 17:11:51;;;;;;;7.10;3.28;;;35.50;39.50;;;;;;5114740;28;20429;-61
2023/06/08 17:14:16;;;;;;;8.40;3.30;;;35.50;39.60;;;;;;5113888;28;20046;-61
2023/06/08 17:16:46;;;;;;;5.03;3.38;;;35.50;39.80;;;;;;5096500;28;20019;-61
2023/06/08 17:19:12;;;;;;;7.15;3.13;;;35.50;39.90;;;;;;5114918;28;20101;-62
2023/06/08 17:21:37;;;;;;;6.70;3.55;;;35.50;40.00;;;;;;5112248;28;20476;-61
2023/06/08 17:24:04;;;;;;;8.25;3.40;;;35.50;39.80;;;;;;5113868;28;20035;-62
2023/06/08 17:26:30;;;;;;;5.95;3.45;;;35.30;39.80;;;;;;5113687;28;20015;-62
2023/06/08 17:28:56;;;;;;;7.53;3.10;;;35.10;40.10;;;;;;5113812;28;20376;-61
2023/06/08 17:31:21;;;;;;;5.15;2.95;;;35.10;40.50;;;;;;5114466;28;20106;-62
2023/06/08 17:33:49;;;;;;;8.10;3.47;;;35.30;40.30;;;;;;5111855;28;20050;-61
2023/06/08 17:36:15;;;;;;;7.35;3.88;;;35.40;40.20;;;;;;5094295;28;20020;-62
2023/06/08 17:38:40;;;;;;;6.70;3.17;;;35.60;40.10;;;;;;5113666;28;20379;-62
2023/06/08 17:41:06;;;;;;;4.85;2.90;;;35.50;39.60;;;;;;5112928;28;20023;-61
2023/06/08 17:43:49;;;;;;;6.40;3.33;;;35.00;40.50;;;;;;5113997;28;20020;-61
2023/06/08 17:46:16;;;;;;;6.03;3.00;;;34.70;40.90;;;;;;5114478;28;20027;-61
2023/06/08 17:48:42;;;;;;;6.22;3.08;;;34.30;41.70;;;;;;5112927;28;20424;-60
2023/06/08 17:51:09;;;;;;;10.60;3.47;;;34.00;41.60;;;;;;5113297;28;20032;-61
2023/06/08 17:53:35;;;;;;;9.70;3.50;;;33.50;42.20;;;;;;5113668;28;20042;-61
2023/06/08 17:56:01;;;;;;;6.80;3.67;;;33.20;42.70;;;;;;5112495;28;20024;-61
2023/06/08 17:58:26;;;;;;;8.23;3.22;;;32.90;43.10;;;;;;5113485;28;20032;-60
2023/06/08 18:00:52;;;;;;;8.73;3.15;;;32.60;43.40;;;;;;5095104;28;20030;-59
2023/06/08 18:03:18;;;;;;;8.25;3.42;;;32.20;44.30;;;;;;5113201;28;20451;-60
2023/06/08 18:05:43;;;;;;;7.28;3.75;;;31.90;44.00;;;;;;5113352;28;20028;-60
2023/06/08 18:08:09;;;;;;;5.18;2.92;;;31.60;44.70;;;;;;5113663;28;20051;-61
2023/06/08 18:10:35;;;;;;;7.57;3.30;;;31.30;45.00;;;;;;5094866;28;20444;-61
2023/06/08 18:13:00;;;;;;;9.45;3.25;;;31.20;45.40;;;;;;5112690;28;20047;-61
2023/06/08 18:15:26;;;;;;;6.15;3.28;;;31.20;45.30;;;;;;5113067;28;20028;-60
2023/06/08 18:17:52;;;;;;;8.45;3.00;;;31.20;45.20;;;;;;5112232;28;20060;-61
2023/06/08 18:20:18;;;;;;;7.82;2.80;;;30.90;45.80;;;;;;5095069;28;20051;-60
2023/06/08 18:22:44;;;;;;;8.65;3.35;;;30.70;46.30;;;;;;5112545;28;20084;-61
2023/06/08 18:25:11;;;;;;;6.78;2.83;;;30.70;46.60;;;;;;5094997;28;20110;-60
2023/06/08 18:27:37;;;;;;;6.00;2.65;;;30.60;46.70;;;;;;5113211;28;20019;-61
2023/06/08 18:30:04;;;;;;;8.32;3.13;;;30.60;46.60;;;;;;5093858;28;20063;-61
2023/06/08 18:32:30;;;;;;;7.55;2.72;;;30.50;46.70;;;;;;5112916;28;20012;-60
2023/06/08 18:34:55;;;;;;;6.40;2.75;;;30.30;47.00;;;;;;5112723;28;20145;-61
2023/06/08 18:37:21;;;;;;;8.35;2.97;;;30.10;47.30;;;;;;5112399;28;20205;-61
2023/06/08 18:39:46;;;;;;;6.30;2.67;;;29.80;47.50;;;;;;5112585;28;20429;-61
2023/06/08 18:42:12;;;;;;;8.75;3.47;;;29.50;48.20;;;;;;5112905;28;20081;-61
2023/06/08 18:44:38;;;;;;;5.38;2.78;;;28.80;49.10;;;;;;5112405;28;20459;-61
2023/06/08 18:47:04;;;;;;;8.30;3.22;;;28.10;50.20;;;;;;5112485;28;20039;-60
2023/06/08 18:49:30;;;;;;;8.70;2.78;;;27.50;51.30;;;;;;5112306;28;20027;-60
2023/06/08 18:52:00;;;;;;;7.57;2.95;;;26.80;52.30;;;;;;5112016;28;20024;-61
2023/06/08 18:54:26;;;;;;;5.47;2.70;;;26.20;53.40;;;;;;5113261;28;20118;-61
2023/06/08 18:56:51;;;;;;;5.40;2.63;;;25.80;54.20;;;;;;5112599;28;20054;-61
2023/06/08 18:59:17;;;;;;;6.47;2.70;;;25.60;54.90;;;;;;5112074;28;20028;-61
2023/06/08 19:01:43;;;;;;;14.07;3.05;;;25.40;55.30;;;;;;5113217;28;20062;-61
2023/06/08 19:04:09;;;;;;;9.65;3.22;;;25.20;55.80;;;;;;5112503;28;20015;-60
2023/06/08 19:06:37;;;;;;;7.88;2.50;;;24.90;56.00;;;;;;5111707;28;20024;-61
2023/06/08 19:09:02;;;;;;;7.10;3.13;;;24.70;56.20;;;;;;5111974;28;20484;-60
2023/06/08 19:11:28;;;;;;;8.18;3.20;;;24.50;56.80;;;;;;5112410;28;20148;-60
2023/06/08 19:13:54;;;;;;;7.07;3.05;;;24.50;57.20;;;;;;5111104;28;20047;-60
2023/06/08 19:16:20;;;;;;;7.95;3.38;;;24.40;57.50;;;;;;5112336;28;20145;-60
2023/06/08 19:18:47;;;;;;;7.65;2.95;;;24.40;57.50;;;;;;5111774;28;20107;-60
2023/06/08 19:21:12;;;;;;;6.85;2.97;;;24.20;57.40;;;;;;5111480;28;20387;-60
2023/06/08 19:23:38;;;;;;;5.95;2.75;;;24.10;57.80;;;;;;5111922;28;20541;-60
2023/06/08 19:26:04;;;;;;;5.93;2.88;;;23.90;58.00;;;;;;5111073;28;20028;-59
2023/06/08 19:28:29;;;;;;;5.65;2.30;;;23.70;58.30;;;;;;5112080;28;20386;-59
2023/06/08 19:30:55;;;;;;;7.88;2.70;;;23.60;58.90;;;;;;5111715;28;20023;-62
2023/06/08 19:33:21;;;;;;;7.13;3.03;;;23.50;59.40;;;;;;5111751;28;20024;-60
2023/06/08 19:35:46;;;;;;;7.07;3.08;;;23.40;59.30;;;;;;5111757;28;20020;-60
2023/06/08 19:38:12;;;;;;;8.30;2.72;;;23.30;59.80;;;;;;5112248;28;20574;-61
